createdAt,value
2022-10-12T00:01:57.585Z,96805.28
2022-10-12T00:04:39.586Z,96804.97
2022-10-12T00:07:20.547Z,96805.88
2022-10-12T00:10:02.482Z,96806.34
2022-10-12T00:12:43.036Z,96803.06
2022-10-12T00:15:21.483Z,96813.44
2022-10-12T00:18:01.488Z,96804.66
2022-10-12T00:20:43.504Z,96802.09
2022-10-12T00:23:22.544Z,96797.66
2022-10-12T00:26:08.506Z,96788.28
2022-10-12T00:28:46.381Z,96807.34
2022-10-12T00:31:26.909Z,96808.03
2022-10-12T00:34:08.673Z,96803.94
2022-10-12T00:36:46.420Z,96805.81
2022-10-12T00:39:23.091Z,96792.00
2022-10-12T00:42:06.082Z,96805.19
2022-10-12T00:44:47.599Z,96802.50
2022-10-12T00:47:27.985Z,96802.41
2022-10-12T00:50:10.577Z,96804.28
2022-10-12T00:52:49.472Z,96807.66
2022-10-12T00:55:28.511Z,96796.78
2022-10-12T00:58:09.513Z,96794.66
2022-10-12T01:00:46.092Z,96787.19
2022-10-12T01:03:23.520Z,96797.84
2022-10-12T01:06:00.536Z,96799.56
2022-10-12T01:08:37.528Z,96785.41
2022-10-12T01:11:15.556Z,96783.19
2022-10-12T01:13:54.301Z,96783.53
2022-10-12T01:16:34.185Z,96783.97
2022-10-12T01:19:23.527Z,96779.28
2022-10-12T01:22:06.750Z,96784.94
2022-10-12T01:24:58.551Z,96783.09
2022-10-12T01:27:47.489Z,96781.22
2022-10-12T01:30:29.902Z,96784.59
2022-10-12T01:33:31.965Z,96788.81
2022-10-12T01:36:11.542Z,96791.06
2022-10-12T01:38:55.276Z,96785.09
2022-10-12T01:41:39.622Z,96788.38
2022-10-12T01:44:22.668Z,96782.31
2022-10-12T01:47:09.221Z,96774.50
2022-10-12T01:49:48.453Z,96772.66
2022-10-12T01:52:32.610Z,96772.78
2022-10-12T01:55:37.680Z,96773.09
2022-10-12T01:58:37.161Z,96776.28
2022-10-12T02:01:24.310Z,96754.59
2022-10-12T02:04:12.754Z,96756.94
2022-10-12T02:06:53.285Z,96770.84
2022-10-12T02:09:34.497Z,96765.94
2022-10-12T02:12:13.368Z,96770.13
2022-10-12T02:14:53.580Z,96773.84
2022-10-12T02:17:31.640Z,96776.28
2022-10-12T02:20:12.919Z,96763.56
2022-10-12T02:22:53.688Z,96760.88
2022-10-12T02:25:33.237Z,96772.69
2022-10-12T02:28:16.614Z,96748.50
2022-10-12T02:31:03.917Z,96764.16
2022-10-12T02:33:46.511Z,96763.16
2022-10-12T02:36:31.620Z,96760.34
2022-10-12T02:39:11.294Z,96750.53
2022-10-12T02:41:53.594Z,96752.38
2022-10-12T02:44:33.643Z,96751.78
2022-10-12T02:47:16.326Z,96744.19
2022-10-12T02:49:54.659Z,96732.34
2022-10-12T02:52:37.139Z,96748.00
2022-10-12T02:55:14.925Z,96746.28
2022-10-12T02:57:50.773Z,96743.00
2022-10-12T03:00:31.639Z,96744.63
2022-10-12T03:03:14.406Z,96736.19
2022-10-12T03:05:54.077Z,96739.94
2022-10-12T03:08:37.799Z,96739.44
2022-10-12T03:11:19.503Z,96735.56
2022-10-12T03:14:03.611Z,96744.28
2022-10-12T03:16:46.392Z,96741.31
2022-10-12T03:19:23.807Z,96738.25
2022-10-12T03:22:05.411Z,96743.72
2022-10-12T03:24:44.023Z,96742.41
2022-10-12T03:27:23.624Z,96736.88
2022-10-12T03:30:04.663Z,96739.13
2022-10-12T03:32:43.628Z,96745.81
2022-10-12T03:35:22.375Z,96744.56
2022-10-12T03:38:05.630Z,96742.53
2022-10-12T03:40:51.675Z,96744.38
2022-10-12T03:43:32.964Z,96749.63
2022-10-12T03:46:09.719Z,96747.34
2022-10-12T03:48:51.315Z,96750.84
2022-10-12T03:51:27.637Z,96753.00
2022-10-12T03:54:10.766Z,96749.84
2022-10-12T03:56:51.499Z,96764.59
2022-10-12T03:59:33.693Z,96752.69
2022-10-12T04:02:15.819Z,96755.34
2022-10-12T04:05:00.882Z,96749.50
2022-10-12T04:07:39.357Z,96753.94
2022-10-12T04:10:18.645Z,96747.97
2022-10-12T04:13:02.652Z,96752.50
2022-10-12T04:15:42.650Z,96751.78
2022-10-12T04:18:19.695Z,96755.38
2022-10-12T04:20:59.663Z,96753.09
2022-10-12T04:23:37.818Z,96751.69
2022-10-12T04:26:20.824Z,96756.91
2022-10-12T04:29:01.764Z,96752.78
2022-10-12T04:31:42.192Z,96758.75
2022-10-12T04:34:17.669Z,96764.78
2022-10-12T04:36:52.771Z,96759.84
2022-10-12T04:39:25.010Z,96758.22
2022-10-12T04:41:57.583Z,96759.25
2022-10-12T04:44:32.367Z,96764.56
2022-10-12T04:47:04.806Z,96760.34
2022-10-12T04:49:35.921Z,96758.72
2022-10-12T04:52:07.625Z,96762.13
2022-10-12T04:54:41.963Z,96767.25
2022-10-12T04:57:15.418Z,96760.66
2022-10-12T04:59:49.928Z,96769.19
2022-10-12T05:02:23.161Z,96774.31
2022-10-12T05:04:54.031Z,96775.19
2022-10-12T05:07:25.590Z,96779.53
2022-10-12T05:09:56.222Z,96771.94
2022-10-12T05:12:27.661Z,96779.63
2022-10-12T05:15:00.619Z,96776.25
2022-10-12T05:17:32.046Z,96774.56
2022-10-12T05:20:03.025Z,96785.84
2022-10-12T05:22:34.768Z,96778.91
2022-10-12T05:25:05.983Z,96788.41
2022-10-12T05:27:37.909Z,96771.81
2022-10-12T05:30:11.994Z,96783.28
2022-10-12T05:32:44.723Z,96789.16
2022-10-12T05:35:14.847Z,96791.59
2022-10-12T05:37:45.603Z,96793.06
2022-10-12T05:40:17.578Z,96793.66
2022-10-12T05:42:47.964Z,96792.66
2022-10-12T05:45:21.083Z,96798.19
2022-10-12T05:47:52.371Z,96794.31
2022-10-12T05:50:22.796Z,96795.53
2022-10-12T05:52:53.266Z,96798.81
2022-10-12T05:55:23.335Z,96800.25
2022-10-12T05:57:55.931Z,96780.06
2022-10-12T06:00:30.174Z,96791.84
2022-10-12T06:03:02.409Z,96796.59
2022-10-12T06:05:34.211Z,96783.44
2022-10-12T06:08:07.756Z,96786.63
2022-10-12T06:10:38.940Z,96791.25
2022-10-12T06:13:10.114Z,96789.69
2022-10-12T06:15:42.116Z,96790.97
2022-10-12T06:18:12.107Z,96790.63
2022-10-12T06:20:43.373Z,96789.41
2022-10-12T06:23:13.902Z,96799.22
2022-10-12T06:25:45.787Z,96797.28
2022-10-12T06:28:16.328Z,96799.44
2022-10-12T06:30:50.097Z,96806.56
2022-10-12T06:33:21.351Z,96808.41
2022-10-12T06:35:51.836Z,96815.59
2022-10-12T06:38:23.214Z,96812.69
2022-10-12T06:40:53.835Z,96813.19
2022-10-12T06:43:25.262Z,96818.66
2022-10-12T06:45:57.568Z,96812.84
2022-10-12T06:48:27.687Z,96811.19
2022-10-12T06:50:57.269Z,96822.31
2022-10-12T06:53:31.478Z,96816.31
2022-10-12T06:56:02.959Z,96823.94
2022-10-12T06:58:35.779Z,96820.00
2022-10-12T07:01:12.515Z,96816.28
2022-10-12T07:03:44.936Z,96823.22
2022-10-12T07:06:19.041Z,96824.66
2022-10-12T07:08:52.007Z,96818.41
2022-10-12T07:11:23.501Z,96831.66
2022-10-12T07:13:55.178Z,96825.81
2022-10-12T07:16:30.081Z,96833.78
2022-10-12T07:19:02.577Z,96831.44
2022-10-12T07:21:35.369Z,96836.59
2022-10-12T07:24:07.101Z,96827.78
2022-10-12T07:26:37.906Z,96828.25
2022-10-12T07:29:10.056Z,96822.22
2022-10-12T07:31:48.509Z,96822.13
2022-10-12T07:34:25.709Z,96825.47
2022-10-12T07:37:05.573Z,96819.00
2022-10-12T07:39:38.639Z,96826.09
2022-10-12T07:42:09.461Z,96817.03
2022-10-12T07:44:40.997Z,96818.63
2022-10-12T07:47:13.569Z,96822.47
2022-10-12T07:49:45.672Z,96819.34
2022-10-12T07:52:16.860Z,96816.34
2022-10-12T07:54:49.217Z,96816.97
2022-10-12T07:57:20.915Z,96822.63
2022-10-12T07:59:57.502Z,96823.91
2022-10-12T08:02:32.441Z,96816.78
2022-10-12T08:05:04.545Z,96825.91
2022-10-12T08:07:36.738Z,96812.44
2022-10-12T08:10:09.811Z,96823.06
2022-10-12T08:12:40.461Z,96820.53
2022-10-12T08:15:13.047Z,96822.22
2022-10-12T08:17:50.078Z,96817.88
2022-10-12T08:20:22.635Z,96820.91
2022-10-12T08:22:55.460Z,96818.91
2022-10-12T08:25:27.350Z,96811.13
2022-10-12T08:27:58.432Z,96813.31
2022-10-12T08:30:28.899Z,96829.41
2022-10-12T08:33:00.590Z,96816.97
2022-10-12T08:35:32.884Z,96823.50
2022-10-12T08:38:03.370Z,96823.28
2022-10-12T08:40:37.782Z,96821.78
2022-10-12T08:43:12.606Z,96825.53
2022-10-12T08:45:55.628Z,96826.47
2022-10-12T08:48:31.988Z,96827.38
2022-10-12T08:51:10.634Z,96827.16
2022-10-12T08:53:51.405Z,96824.06
2022-10-12T08:56:23.877Z,96815.16
2022-10-12T08:58:58.077Z,96816.53
2022-10-12T09:01:38.829Z,96803.94
2022-10-12T09:04:32.140Z,96823.19
2022-10-12T09:07:11.019Z,96811.50
2022-10-12T09:09:56.235Z,96819.03
2022-10-12T09:12:38.155Z,96819.56
2022-10-12T09:15:16.023Z,96828.66
2022-10-12T09:17:51.364Z,96825.66
2022-10-12T09:20:26.943Z,96831.63
2022-10-12T09:23:00.606Z,96824.81
2022-10-12T09:25:32.587Z,96835.19
2022-10-12T09:28:18.624Z,96838.59
2022-10-12T09:31:02.813Z,96830.78
2022-10-12T09:33:38.433Z,96830.31
2022-10-12T09:36:14.046Z,96821.44
2022-10-12T09:38:47.800Z,96825.72
2022-10-12T09:41:25.107Z,96821.81
2022-10-12T09:44:02.542Z,96821.50
2022-10-12T09:46:42.297Z,96827.09
2022-10-12T09:49:15.097Z,96824.50
2022-10-12T09:51:49.723Z,96821.72
2022-10-12T09:54:21.539Z,96811.66
2022-10-12T09:56:56.261Z,96822.38
2022-10-12T09:59:34.552Z,96820.69
2022-10-12T10:02:18.528Z,96804.25
2022-10-12T10:04:59.866Z,96819.88
2022-10-12T10:07:36.109Z,96824.34
2022-10-12T10:10:17.234Z,96801.97
2022-10-12T10:12:55.016Z,96810.69
2022-10-12T10:15:30.892Z,96823.06
2022-10-12T10:18:03.575Z,96828.13
2022-10-12T10:20:36.624Z,96812.91
2022-10-12T10:23:08.365Z,96810.19
2022-10-12T10:25:38.467Z,96805.75
2022-10-12T10:28:26.538Z,96807.78
2022-10-12T10:31:04.453Z,96799.56
2022-10-12T10:33:36.722Z,96797.31
2022-10-12T10:36:11.807Z,96800.38
2022-10-12T10:38:57.608Z,96795.56
2022-10-12T10:41:33.395Z,96799.19
2022-10-12T10:44:04.708Z,96791.53
2022-10-12T10:46:37.728Z,96802.06
2022-10-12T10:49:12.576Z,96803.66
2022-10-12T10:51:46.276Z,96793.81
2022-10-12T10:54:27.342Z,96805.44
2022-10-12T10:57:00.621Z,96802.84
2022-10-12T10:59:43.199Z,96791.97
2022-10-12T11:02:28.864Z,96795.97
2022-10-12T11:05:06.715Z,96779.28
2022-10-12T11:07:41.811Z,96791.19
2022-10-12T11:10:20.591Z,96790.06
2022-10-12T11:12:56.130Z,96791.88
2022-10-12T11:15:29.040Z,96787.31
2022-10-12T11:18:03.552Z,96784.66
2022-10-12T11:20:41.024Z,96780.53
2022-10-12T11:23:20.998Z,96769.66
2022-10-12T11:26:01.947Z,96767.25
2022-10-12T11:28:33.964Z,96777.56
2022-10-12T11:31:06.099Z,96769.53
2022-10-12T11:33:40.063Z,96768.34
2022-10-12T11:36:15.115Z,96770.09
2022-10-12T11:38:48.752Z,96761.97
2022-10-12T11:41:35.295Z,96760.97
2022-10-12T11:44:09.400Z,96757.69
2022-10-12T11:46:40.873Z,96756.09
2022-10-12T11:49:17.240Z,96758.50
2022-10-12T11:51:49.977Z,96752.88
2022-10-12T11:54:29.004Z,96743.47
2022-10-12T11:57:06.754Z,96750.53
2022-10-12T11:59:40.673Z,96745.63
2022-10-12T12:02:21.189Z,96745.81
2022-10-12T12:04:53.184Z,96748.63
2022-10-12T12:07:48.819Z,96742.72
2022-10-12T12:11:01.100Z,96734.34
2022-10-12T12:13:33.509Z,96730.59
2022-10-12T12:16:34.508Z,96744.63
2022-10-12T12:19:20.314Z,96749.09
2022-10-12T12:22:18.968Z,96740.31
2022-10-12T12:25:22.494Z,96740.25
2022-10-12T12:27:54.700Z,96739.34
2022-10-12T12:31:05.231Z,96741.69
2022-10-12T12:33:39.284Z,96738.50
2022-10-12T12:36:11.554Z,96736.72
2022-10-12T12:38:43.465Z,96731.72
2022-10-12T12:41:17.006Z,96722.06
2022-10-12T12:44:04.828Z,96730.53
2022-10-12T12:50:06.413Z,96723.78
2022-10-12T12:52:42.117Z,96714.44
2022-10-12T12:55:42.839Z,96740.84
2022-10-12T12:58:27.579Z,96741.56
2022-10-12T13:01:12.942Z,96744.03
2022-10-12T13:04:14.330Z,96746.44
2022-10-12T13:07:16.248Z,96743.38
2022-10-12T13:10:17.304Z,96721.44
2022-10-12T13:13:26.542Z,96741.44
2022-10-12T13:16:06.569Z,96734.25
2022-10-12T13:18:59.287Z,96740.97
2022-10-12T13:21:32.267Z,96733.59
2022-10-12T13:24:12.100Z,96740.03
2022-10-12T13:26:44.491Z,96705.41
2022-10-12T13:29:21.742Z,96736.34
2022-10-12T13:31:56.010Z,96736.53
2022-10-12T13:34:29.356Z,96739.28
2022-10-12T13:37:02.150Z,96734.03
2022-10-12T13:39:44.535Z,96732.91
2022-10-12T13:42:19.432Z,96736.78
2022-10-12T13:44:51.156Z,96731.75
2022-10-12T13:47:27.538Z,96729.47
2022-10-12T13:49:59.640Z,96730.28
2022-10-12T13:52:33.252Z,96728.97
2022-10-12T13:55:17.896Z,96729.56
2022-10-12T13:57:51.462Z,96711.81
2022-10-12T14:00:23.308Z,96719.75
2022-10-12T14:02:59.567Z,96732.91
2022-10-12T14:05:32.482Z,96735.81
2022-10-12T14:08:07.755Z,96732.91
2022-10-12T14:10:39.891Z,96735.31
2022-10-12T14:13:12.448Z,96728.03
2022-10-12T14:15:44.764Z,96734.63
2022-10-12T14:18:38.093Z,96739.38
2022-10-12T14:21:18.072Z,96732.13
2022-10-12T14:23:52.491Z,96731.81
2022-10-12T14:26:32.133Z,96730.34
2022-10-12T14:29:02.497Z,96728.50
2022-10-12T14:31:54.303Z,96733.69
2022-10-12T14:34:40.158Z,96730.91
2022-10-12T14:37:26.979Z,96734.19
2022-10-12T14:40:02.243Z,96731.75
2022-10-12T14:42:38.439Z,96729.00
2022-10-12T14:45:22.847Z,96734.19
2022-10-12T14:47:54.089Z,96729.06
2022-10-12T14:50:24.699Z,96729.44
2022-10-12T14:52:55.082Z,96729.06
2022-10-12T14:55:27.383Z,96725.34
2022-10-12T14:58:00.868Z,96730.16
2022-10-12T15:00:33.199Z,96721.66
2022-10-12T15:03:05.075Z,96721.22
2022-10-12T15:05:39.259Z,96719.16
2022-10-12T15:08:10.541Z,96725.97
2022-10-12T15:10:43.085Z,96727.44
2022-10-12T15:13:17.396Z,96719.00
2022-10-12T15:15:49.303Z,96718.97
2022-10-12T15:18:21.406Z,96720.78
2022-10-12T15:20:52.818Z,96714.88
2022-10-12T15:23:24.115Z,96710.44
2022-10-12T15:25:56.492Z,96718.63
2022-10-12T15:28:31.349Z,96709.97
2022-10-12T15:31:16.995Z,96714.63
2022-10-12T15:33:51.372Z,96717.13
2022-10-12T15:36:23.631Z,96724.72
2022-10-12T15:38:55.959Z,96726.94
2022-10-12T15:41:29.129Z,96723.84
2022-10-12T15:44:03.437Z,96734.41
2022-10-12T15:46:36.182Z,96719.38
2022-10-12T15:49:08.823Z,96724.00
2022-10-12T15:51:42.024Z,96739.13
2022-10-12T15:54:12.670Z,96740.03
2022-10-12T15:56:45.241Z,96736.72
2022-10-12T15:59:16.791Z,96746.53
2022-10-12T16:01:49.323Z,96741.91
2022-10-12T16:04:23.352Z,96735.34
2022-10-12T16:06:55.325Z,96722.19
2022-10-12T16:09:27.387Z,96739.94
2022-10-12T16:11:57.657Z,96738.72
2022-10-12T16:14:29.688Z,96731.88
2022-10-12T16:17:06.825Z,96715.78
2022-10-12T16:19:37.170Z,96733.25
2022-10-12T16:22:08.388Z,96731.34
2022-10-12T16:24:43.038Z,96730.81
2022-10-12T16:27:15.771Z,96737.59
2022-10-12T16:29:52.765Z,96737.78
2022-10-12T16:32:27.137Z,96729.03
2022-10-12T16:35:01.084Z,96726.34
2022-10-12T16:37:38.146Z,96733.06
2022-10-12T16:40:14.496Z,96729.59
2022-10-12T16:42:50.825Z,96748.72
2022-10-12T16:45:30.286Z,96750.09
2022-10-12T16:48:03.606Z,96749.97
2022-10-12T16:50:40.465Z,96748.56
2022-10-12T16:53:14.540Z,96746.41
2022-10-12T16:55:47.189Z,96748.16
2022-10-12T16:58:24.583Z,96755.13
2022-10-12T17:01:12.791Z,96754.06
2022-10-12T17:03:55.660Z,96761.81
2022-10-12T17:06:35.098Z,96760.41
2022-10-12T17:09:13.914Z,96759.94
2022-10-12T17:11:53.273Z,96752.06
2022-10-12T17:14:34.041Z,96750.72
2022-10-12T17:17:17.386Z,96749.34
2022-10-12T17:19:55.812Z,96744.72
2022-10-12T17:22:35.100Z,96749.25
2022-10-12T17:25:14.056Z,96756.97
2022-10-12T17:27:52.155Z,96753.91
2022-10-12T17:30:29.539Z,96755.63
2022-10-12T17:33:09.903Z,96760.88
2022-10-12T17:35:50.241Z,96765.81
2022-10-12T17:38:28.362Z,96771.03
2022-10-12T17:41:09.213Z,96771.88
2022-10-12T17:43:48.737Z,96763.91
2022-10-12T17:46:27.917Z,96760.72
2022-10-12T17:49:09.589Z,96760.72
2022-10-12T17:51:49.215Z,96762.06
2022-10-12T17:54:25.745Z,96770.50
2022-10-12T17:57:04.067Z,96761.38
2022-10-12T17:59:44.283Z,96752.06
2022-10-12T18:02:25.224Z,96755.66
2022-10-12T18:05:05.137Z,96759.34
2022-10-12T18:07:43.710Z,96756.75
2022-10-12T18:10:26.118Z,96764.16
2022-10-12T18:13:08.226Z,96764.88
2022-10-12T18:15:48.312Z,96763.94
2022-10-12T18:18:29.827Z,96761.72
2022-10-12T18:21:14.407Z,96762.09
2022-10-12T18:23:50.442Z,96758.03
2022-10-12T18:26:29.738Z,96753.81
2022-10-12T18:29:13.045Z,96742.88
2022-10-12T18:31:51.293Z,96757.19
2022-10-12T18:34:36.332Z,96758.94
2022-10-12T18:37:19.252Z,96742.84
2022-10-12T18:39:58.630Z,96757.63
2022-10-12T18:42:36.295Z,96759.47
2022-10-12T18:45:13.811Z,96760.69
2022-10-12T18:47:50.124Z,96759.66
2022-10-12T18:50:27.301Z,96756.38
2022-10-12T18:53:07.837Z,96758.13
2022-10-12T18:55:47.217Z,96762.00
2022-10-12T18:58:25.394Z,96762.31
2022-10-12T19:01:06.414Z,96758.94
2022-10-12T19:03:47.667Z,96767.25
2022-10-12T19:06:30.670Z,96762.84
2022-10-12T19:09:10.100Z,96740.78
2022-10-12T19:11:49.369Z,96763.22
2022-10-12T19:14:27.799Z,96757.16
2022-10-12T19:17:08.281Z,96764.84
2022-10-12T19:19:48.472Z,96761.25
2022-10-12T19:22:23.904Z,96755.22
2022-10-12T19:25:04.124Z,96758.53
2022-10-12T19:27:44.563Z,96766.09
2022-10-12T19:30:23.429Z,96767.81
2022-10-12T19:33:01.205Z,96762.91
2022-10-12T19:35:39.289Z,96766.59
2022-10-12T19:38:17.927Z,96764.34
2022-10-12T19:41:02.026Z,96763.50
2022-10-12T19:43:42.907Z,96758.47
2022-10-12T19:46:18.292Z,96755.31
2022-10-12T19:48:59.484Z,96759.69
2022-10-12T19:51:37.842Z,96754.06
2022-10-12T19:54:14.996Z,96761.09
2022-10-12T19:56:55.300Z,96761.09
2022-10-12T19:59:40.301Z,96759.47
2022-10-12T20:02:17.018Z,96757.19
2022-10-12T20:04:58.322Z,96757.13
2022-10-12T20:07:38.312Z,96763.97
2022-10-12T20:10:16.120Z,96748.09
2022-10-12T20:12:59.319Z,96750.44
2022-10-12T20:15:42.999Z,96750.03
2022-10-12T20:18:21.063Z,96752.38
2022-10-12T20:20:58.114Z,96744.47
2022-10-12T20:23:34.163Z,96748.03
2022-10-12T20:26:17.029Z,96756.91
2022-10-12T20:28:57.321Z,96759.47
2022-10-12T20:31:37.326Z,96756.84
2022-10-12T20:34:16.331Z,96756.13
2022-10-12T20:37:23.431Z,96747.81
2022-10-12T20:40:06.479Z,96759.03
2022-10-12T20:42:47.450Z,96756.38
2022-10-12T20:45:26.177Z,96755.84
2022-10-12T20:48:05.182Z,96750.66
2022-10-12T20:50:45.039Z,96759.97
2022-10-12T20:53:23.334Z,96752.66
2022-10-12T20:56:08.351Z,96750.41
2022-10-12T21:02:50.872Z,96750.63
2022-10-12T21:05:30.186Z,96755.72
2022-10-12T21:08:10.129Z,96729.56
2022-10-12T21:10:53.361Z,96750.19
2022-10-12T21:13:33.856Z,96748.53
2022-10-12T21:16:12.571Z,96745.06
2022-10-12T21:18:53.582Z,96751.91
2022-10-12T21:21:33.469Z,96753.94
2022-10-12T21:24:12.721Z,96756.06
2022-10-12T21:26:51.509Z,96760.34
2022-10-12T21:29:30.886Z,96756.94
2022-10-12T21:32:10.364Z,96755.22
2022-10-12T21:34:54.016Z,96758.78
2022-10-12T21:37:33.363Z,96754.50
2022-10-12T21:40:15.114Z,96744.47
2022-10-12T21:42:55.371Z,96747.66
2022-10-12T21:45:36.472Z,96744.47
2022-10-12T21:48:14.934Z,96736.94
2022-10-12T21:51:04.286Z,96746.34
2022-10-12T21:53:47.374Z,96744.69
2022-10-12T21:56:28.457Z,96746.81
2022-10-12T21:59:09.974Z,96749.66
2022-10-12T22:01:53.385Z,96748.19
2022-10-12T22:04:30.442Z,96736.63
2022-10-12T22:07:12.881Z,96740.63
2022-10-12T22:09:54.945Z,96747.19
2022-10-12T22:12:36.121Z,96745.47
2022-10-12T22:15:16.976Z,96746.47
2022-10-12T22:17:57.977Z,96739.88
2022-10-12T22:20:37.179Z,96740.72
2022-10-12T22:23:20.089Z,96737.63
2022-10-12T22:26:00.204Z,96726.84
2022-10-12T22:28:39.295Z,96739.63
2022-10-12T22:31:16.464Z,96736.72
2022-10-12T22:33:55.840Z,96739.91
2022-10-12T22:36:35.407Z,96745.03
2022-10-12T22:39:20.402Z,96731.44
2022-10-12T22:42:03.630Z,96726.41
2022-10-12T22:44:46.672Z,96730.06
2022-10-12T22:47:24.409Z,96723.66
2022-10-12T22:50:03.744Z,96726.84
2022-10-12T22:52:43.429Z,96731.22
2022-10-12T22:55:26.414Z,96706.25
2022-10-12T22:58:05.164Z,96727.97
2022-10-12T23:00:40.933Z,96730.53
2022-10-12T23:03:19.495Z,96721.94
2022-10-12T23:06:01.049Z,96727.16
2022-10-12T23:08:42.756Z,96718.75
2022-10-12T23:11:26.545Z,96715.56
2022-10-12T23:14:04.853Z,96718.94
2022-10-12T23:16:44.094Z,96723.13
2022-10-12T23:19:22.463Z,96717.19
2022-10-12T23:22:04.793Z,96695.84
2022-10-12T23:24:43.475Z,96711.53
2022-10-12T23:27:23.461Z,96723.22
2022-10-12T23:30:02.944Z,96701.16
2022-10-12T23:32:43.436Z,96720.13
2022-10-12T23:35:24.438Z,96717.75
2022-10-12T23:38:04.017Z,96718.56
2022-10-12T23:40:42.443Z,96724.22
2022-10-12T23:43:22.444Z,96720.09
2022-10-12T23:46:02.592Z,96730.22
2022-10-12T23:48:41.674Z,96724.31
2022-10-12T23:51:22.120Z,96726.97
2022-10-12T23:54:03.449Z,96721.28
2022-10-12T23:56:42.561Z,96724.75
2022-10-12T23:59:24.455Z,96722.09
